Terminal Aerodrome Forecast
Issued by NWS

Home | Current Version | Previous Version | Text Only | Print | Product List | Glossary On
Versions: 1 2 3 4 5 6 7 8 9 10 11 12 13 14 15 16 17 18 19 20 21 22 23 24 25 26 27 28 29 30 31 32 33 34 35 36 37 38 39 40 41 42
000
FTUS46 KEKA 202335
TAFACV
TAF
KACV 202335Z 2100/2124 22010KT 5SM FU BKN030 OVC040
     FM210600 16007KT 5SM FU BKN020 OVC030
     FM210900 15003KT 4SM BR FU OVC012
      TEMPO 2110/2113 2SM BR FU OVC008
     FM211700 25004KT 5SM BR FU BKN015
     FM212000 25006KT 6SM FU BKN030=

USA.gov is the U.S. government's official web portal to all federal, state and local government web resources and services.